Time;durP1;ratioP1;P1;durP2;ratioP2;P2;SDS_P1;SDS_P2;PMS_P1;PMS_P2;Temp;Humidity;BMP_temperature;BMP_pressure;BME280_temperature;BME280_humidity;BME280_pressure;Samples;Min_cycle;Max_cycle;Signal;HPM_P1;HPM_P2
2021/03/02 00:02:12;;;;;;;45.67;26.07;;;;;;;;;;5054037;28;20184;-88
2021/03/02 00:04:37;;;;;;;53.43;28.17;;;;;;;;;;5054704;28;20175;-87
2021/03/02 00:07:03;;;;;;;73.63;35.47;;;;;;;;;;5055226;28;20233;-87
2021/03/02 00:09:29;;;;;;;49.63;28.20;;;;;;;;;;5054437;28;20184;-87
2021/03/02 00:11:54;;;;;;;52.03;29.10;;;;;;;;;;5054581;28;20241;-87
2021/03/02 00:14:20;;;;;;;52.93;31.30;;;;;;;;;;5054479;28;20615;-87
2021/03/02 00:16:56;;;;;;;56.90;30.63;;;;;;;;;;5054460;28;20192;-87
2021/03/02 00:19:25;;;;;;;59.30;32.67;;;;;;;;;;5054785;28;20162;-87
2021/03/02 00:21:51;;;;;;;54.93;29.87;;;;;;;;;;5055209;28;20172;-87
2021/03/02 00:24:23;;;;;;;50.20;28.40;;;;;;;;;;5054452;28;20529;-87
2021/03/02 00:26:52;;;;;;;58.93;32.13;;;;;;;;;;5054955;28;20190;-87
2021/03/02 00:29:18;;;;;;;50.10;28.67;;;;;;;;;;5054601;28;20179;-87
2021/03/02 00:31:44;;;;;;;66.93;33.93;;;;;;;;;;5054307;28;20179;-87
2021/03/02 00:34:10;;;;;;;52.67;29.10;;;;;;;;;;5054402;28;20194;-87
2021/03/02 00:36:36;;;;;;;55.93;29.87;;;;;;;;;;5053055;28;20211;-87
2021/03/02 00:39:01;;;;;;;59.03;30.93;;;;;;;;;;5054315;28;20172;-87
2021/03/02 00:41:26;;;;;;;55.60;29.57;;;;;;;;;;5054420;28;20164;-87
2021/03/02 00:43:53;;;;;;;59.70;31.63;;;;;;;;;;5053976;28;20225;-87
2021/03/02 00:46:19;;;;;;;51.37;28.57;;;;;;;;;;5053261;28;20195;-87
2021/03/02 00:48:44;;;;;;;53.47;27.80;;;;;;;;;;5054177;28;20168;-87
2021/03/02 00:51:09;;;;;;;55.47;30.77;;;;;;;;;;5053834;28;20164;-87
2021/03/02 00:53:34;;;;;;;53.07;28.77;;;;;;;;;;5054964;28;20175;-87
2021/03/02 00:56:00;;;;;;;53.73;29.50;;;;;;;;;;5053693;28;20599;-87
2021/03/02 00:58:25;;;;;;;51.33;28.80;;;;;;;;;;5054625;28;20610;-87
2021/03/02 01:00:50;;;;;;;51.97;29.33;;;;;;;;;;5053685;28;20227;-86
2021/03/02 01:03:16;;;;;;;58.07;29.67;;;;;;;;;;5054593;28;20260;-87
2021/03/02 01:05:41;;;;;;;50.97;26.67;;;;;;;;;;5054274;28;20287;-87
2021/03/02 01:08:06;;;;;;;46.50;25.90;;;;;;;;;;5054222;28;20172;-87
2021/03/02 01:10:32;;;;;;;52.93;28.07;;;;;;;;;;5053964;28;20172;-87
2021/03/02 01:12:57;;;;;;;53.03;28.90;;;;;;;;;;5054401;28;20171;-87
2021/03/02 01:15:22;;;;;;;52.93;29.33;;;;;;;;;;5053487;28;20168;-87
2021/03/02 01:17:48;;;;;;;53.83;27.80;;;;;;;;;;5053839;28;20180;-87
2021/03/02 01:20:13;;;;;;;54.00;28.57;;;;;;;;;;5053846;28;20172;-87
2021/03/02 01:22:38;;;;;;;51.87;27.57;;;;;;;;;;5053746;28;20589;-87
2021/03/02 01:25:08;;;;;;;50.30;26.53;;;;;;;;;;5053269;28;20168;-87
2021/03/02 01:27:34;;;;;;;49.00;26.50;;;;;;;;;;5053713;28;20649;-86
2021/03/02 01:29:59;;;;;;;44.67;25.20;;;;;;;;;;5053471;28;20160;-86
2021/03/02 01:32:24;;;;;;;46.57;25.33;;;;;;;;;;5054150;28;20164;-86
2021/03/02 01:34:50;;;;;;;52.93;28.17;;;;;;;;;;5052337;28;20191;-87
2021/03/02 01:37:15;;;;;;;49.30;27.40;;;;;;;;;;5053276;28;20195;-88
2021/03/02 01:39:40;;;;;;;44.87;25.27;;;;;;;;;;5053412;28;20164;-88
2021/03/02 01:42:06;;;;;;;46.67;23.93;;;;;;;;;;5053964;28;20164;-88
2021/03/02 01:44:31;;;;;;;51.77;27.20;;;;;;;;;;5053887;28;20172;-87
2021/03/02 01:46:57;;;;;;;55.93;27.70;;;;;;;;;;5053871;28;20305;-87
2021/03/02 01:49:22;;;;;;;50.40;27.40;;;;;;;;;;5053355;28;20638;-87
2021/03/02 01:51:48;;;;;;;54.10;27.93;;;;;;;;;;5052282;28;20168;-87
2021/03/02 01:54:14;;;;;;;47.20;25.13;;;;;;;;;;5053851;28;20694;-87
2021/03/02 01:56:39;;;;;;;75.30;40.53;;;;;;;;;;5053461;28;20199;-87
2021/03/02 01:59:05;;;;;;;136.00;60.83;;;;;;;;;;5053444;28;20168;-87
2021/03/02 02:01:30;;;;;;;110.23;48.87;;;;;;;;;;5056233;28;20231;-87
2021/03/02 02:04:00;;;;;;;60.10;32.20;;;;;;;;;;5057062;28;20171;-87
2021/03/02 02:06:31;;;;;;;52.57;27.63;;;;;;;;;;5056953;28;20542;-87
2021/03/02 02:08:56;;;;;;;50.80;26.57;;;;;;;;;;5057222;28;20176;-87
2021/03/02 02:11:26;;;;;;;52.80;27.90;;;;;;;;;;5057782;28;20182;-87
2021/03/02 02:13:55;;;;;;;52.13;27.73;;;;;;;;;;5057156;28;20614;-87
2021/03/02 02:16:21;;;;;;;53.23;28.20;;;;;;;;;;5056723;28;20202;-87
2021/03/02 02:18:48;;;;;;;54.47;28.30;;;;;;;;;;5057074;28;20226;-87
2021/03/02 02:21:42;;;;;;;52.57;27.23;;;;;;;;;;5055715;28;20212;-87
2021/03/02 02:24:15;;;;;;;47.47;26.10;;;;;;;;;;5037309;28;20659;-86
2021/03/02 02:26:48;;;;;;;51.90;28.17;;;;;;;;;;5057278;28;20183;-86
2021/03/02 02:29:18;;;;;;;52.50;27.63;;;;;;;;;;5056717;28;20584;-86
2021/03/02 02:31:43;;;;;;;50.87;26.27;;;;;;;;;;5056716;28;20179;-87
2021/03/02 02:34:10;;;;;;;47.33;25.30;;;;;;;;;;5056539;28;20237;-87
2021/03/02 02:36:36;;;;;;;49.90;26.13;;;;;;;;;;5056360;28;20203;-87
2021/03/02 02:39:02;;;;;;;48.37;25.80;;;;;;;;;;5056441;28;20167;-87
2021/03/02 02:41:28;;;;;;;46.40;24.70;;;;;;;;;;5056287;28;20187;-87
2021/03/02 02:43:54;;;;;;;50.47;25.57;;;;;;;;;;5056403;28;20186;-87
2021/03/02 02:46:19;;;;;;;69.93;29.87;;;;;;;;;;5056406;28;20207;-87
2021/03/02 02:48:46;;;;;;;51.50;26.77;;;;;;;;;;5056574;28;20564;-87
2021/03/02 02:51:12;;;;;;;44.03;23.63;;;;;;;;;;5056250;28;20221;-87
2021/03/02 02:53:37;;;;;;;48.87;25.10;;;;;;;;;;5055775;28;20175;-87
2021/03/02 02:56:04;;;;;;;44.87;24.10;;;;;;;;;;5056660;28;20203;-87
2021/03/02 02:58:37;;;;;;;42.17;23.60;;;;;;;;;;5056365;28;20176;-87
2021/03/02 03:01:03;;;;;;;46.67;23.10;;;;;;;;;;5055070;28;20598;-87
2021/03/02 03:03:30;;;;;;;43.13;25.13;;;;;;;;;;5056278;28;20245;-87
2021/03/02 03:05:56;;;;;;;46.00;25.60;;;;;;;;;;5055887;28;20187;-87
2021/03/02 03:08:24;;;;;;;46.07;24.67;;;;;;;;;;5055871;28;20538;-87
2021/03/02 03:10:51;;;;;;;44.47;25.17;;;;;;;;;;5056126;28;20168;-87
2021/03/02 03:13:22;;;;;;;46.17;24.70;;;;;;;;;;5055429;28;20183;-87
2021/03/02 03:15:48;;;;;;;44.43;24.47;;;;;;;;;;5056160;28;20290;-87
2021/03/02 03:18:15;;;;;;;43.90;24.33;;;;;;;;;;5055778;28;20172;-87
2021/03/02 03:20:41;;;;;;;47.80;24.43;;;;;;;;;;5055684;28;20704;-87
2021/03/02 03:23:06;;;;;;;46.00;24.97;;;;;;;;;;5056180;28;20195;-87
2021/03/02 03:25:32;;;;;;;43.00;24.07;;;;;;;;;;5056071;28;20200;-87
2021/03/02 03:27:59;;;;;;;47.00;25.30;;;;;;;;;;5055695;28;20619;-88
2021/03/02 03:30:25;;;;;;;48.03;25.77;;;;;;;;;;5054389;28;20263;-87
2021/03/02 03:32:54;;;;;;;42.90;24.10;;;;;;;;;;5055812;28;20692;-87
2021/03/02 03:35:20;;;;;;;45.03;25.00;;;;;;;;;;5055550;28;20195;-87
2021/03/02 03:37:46;;;;;;;47.17;23.73;;;;;;;;;;5055417;28;20217;-86
2021/03/02 03:40:11;;;;;;;46.13;24.33;;;;;;;;;;5055265;28;20222;-86
2021/03/02 03:42:36;;;;;;;42.93;24.20;;;;;;;;;;5055526;28;20586;-86
2021/03/02 03:45:02;;;;;;;42.43;24.93;;;;;;;;;;5054186;28;20558;-87
2021/03/02 03:47:27;;;;;;;47.53;24.13;;;;;;;;;;5055147;28;20171;-87
2021/03/02 03:49:53;;;;;;;41.80;23.90;;;;;;;;;;5054915;28;20611;-86
2021/03/02 03:52:18;;;;;;;41.87;23.37;;;;;;;;;;5055193;28;20171;-86
2021/03/02 03:54:44;;;;;;;43.43;23.97;;;;;;;;;;5055942;28;20196;-86
2021/03/02 03:57:10;;;;;;;42.33;23.10;;;;;;;;;;5054867;28;20203;-86
2021/03/02 03:59:36;;;;;;;47.57;25.73;;;;;;;;;;5054761;28;20224;-86
2021/03/02 04:02:02;;;;;;;49.30;25.67;;;;;;;;;;5054881;28;20152;-86
2021/03/02 04:04:27;;;;;;;44.57;24.93;;;;;;;;;;5055068;28;20644;-86
2021/03/02 04:06:53;;;;;;;44.87;23.87;;;;;;;;;;5055430;28;20182;-87
2021/03/02 04:09:19;;;;;;;48.10;26.90;;;;;;;;;;5054961;28;20179;-87
2021/03/02 04:11:44;;;;;;;46.57;24.00;;;;;;;;;;5055044;28;20521;-87
2021/03/02 04:14:10;;;;;;;44.50;24.57;;;;;;;;;;5053664;28;20182;-87
2021/03/02 04:16:36;;;;;;;42.80;22.73;;;;;;;;;;5054781;28;20199;-87
2021/03/02 04:19:01;;;;;;;46.53;24.33;;;;;;;;;;5055373;28;20222;-86
2021/03/02 04:21:27;;;;;;;40.10;23.23;;;;;;;;;;5054130;28;20618;-86
2021/03/02 04:23:52;;;;;;;45.63;24.37;;;;;;;;;;5055000;28;20546;-86
2021/03/02 04:26:17;;;;;;;44.47;24.07;;;;;;;;;;5055037;28;20214;-86
2021/03/02 04:28:43;;;;;;;42.77;23.53;;;;;;;;;;5054722;28;20195;-87
2021/03/02 04:31:08;;;;;;;43.20;22.93;;;;;;;;;;5054693;28;20279;-87
2021/03/02 04:33:34;;;;;;;46.67;23.17;;;;;;;;;;5054716;28;20218;-88
2021/03/02 04:35:59;;;;;;;41.37;23.60;;;;;;;;;;5053159;28;20642;-87
2021/03/02 04:38:24;;;;;;;44.83;24.07;;;;;;;;;;5054702;28;20172;-87
2021/03/02 04:40:50;;;;;;;43.50;23.97;;;;;;;;;;5054678;28;20172;-88
2021/03/02 04:43:15;;;;;;;45.13;24.17;;;;;;;;;;5052868;28;20176;-88
2021/03/02 04:45:40;;;;;;;46.83;25.10;;;;;;;;;;5053141;28;20176;-87
2021/03/02 04:48:06;;;;;;;42.20;22.63;;;;;;;;;;5054034;28;20168;-88
2021/03/02 04:50:31;;;;;;;42.53;23.97;;;;;;;;;;5053862;28;20176;-88
2021/03/02 04:52:57;;;;;;;48.00;23.97;;;;;;;;;;5054504;28;20174;-87
2021/03/02 04:55:22;;;;;;;42.33;22.47;;;;;;;;;;5054377;28;20172;-87
2021/03/02 04:57:47;;;;;;;43.57;23.17;;;;;;;;;;5055000;28;20179;-87
2021/03/02 05:00:13;;;;;;;43.03;22.87;;;;;;;;;;5054009;28;20223;-87
2021/03/02 05:02:38;;;;;;;43.50;22.90;;;;;;;;;;5052727;28;20172;-87
2021/03/02 05:05:04;;;;;;;45.97;24.00;;;;;;;;;;5054321;28;20183;-86
2021/03/02 05:07:30;;;;;;;43.87;24.03;;;;;;;;;;5052760;28;20233;-86
2021/03/02 05:09:55;;;;;;;42.23;23.93;;;;;;;;;;5053969;28;20519;-86
2021/03/02 05:12:20;;;;;;;43.60;24.37;;;;;;;;;;5053739;28;20174;-86
2021/03/02 05:14:46;;;;;;;44.07;23.43;;;;;;;;;;5053756;28;20214;-87
2021/03/02 05:17:11;;;;;;;45.70;24.40;;;;;;;;;;5053808;28;20528;-87
2021/03/02 05:19:37;;;;;;;41.87;23.60;;;;;;;;;;5054158;28;20200;-87
2021/03/02 05:22:02;;;;;;;46.63;23.33;;;;;;;;;;5054334;28;20226;-87
2021/03/02 05:24:27;;;;;;;42.33;23.80;;;;;;;;;;5053609;28;20214;-87
2021/03/02 05:26:53;;;;;;;43.80;22.50;;;;;;;;;;5053530;28;20630;-87
2021/03/02 05:29:18;;;;;;;43.80;23.57;;;;;;;;;;5054458;28;20175;-87
2021/03/02 05:31:44;;;;;;;46.10;24.60;;;;;;;;;;5053507;28;20172;-87
2021/03/02 05:34:09;;;;;;;60.50;35.73;;;;;;;;;;5053442;28;20192;-86
2021/03/02 05:36:35;;;;;;;50.90;28.33;;;;;;;;;;5056002;28;20639;-87
2021/03/02 05:39:00;;;;;;;48.67;26.17;;;;;;;;;;5057917;28;20171;-87
2021/03/02 05:41:26;;;;;;;57.53;31.33;;;;;;;;;;5057566;28;20164;-87
2021/03/02 05:43:51;;;;;;;80.20;45.20;;;;;;;;;;5056414;28;20175;-87
2021/03/02 05:46:20;;;;;;;73.00;43.53;;;;;;;;;;5057998;28;20207;-87
2021/03/02 05:48:46;;;;;;;72.83;41.13;;;;;;;;;;5057718;28;20171;-87
2021/03/02 05:51:11;;;;;;;151.63;94.77;;;;;;;;;;5057344;28;20278;-87
2021/03/02 05:53:37;;;;;;;47.13;25.30;;;;;;;;;;5057572;28;20630;-87
2021/03/02 05:56:04;;;;;;;62.17;35.27;;;;;;;;;;5057428;28;20728;-87
2021/03/02 05:58:29;;;;;;;61.83;36.97;;;;;;;;;;5057740;28;20179;-87
2021/03/02 06:00:54;;;;;;;79.13;47.67;;;;;;;;;;5057090;28;20362;-87
2021/03/02 06:03:20;;;;;;;57.70;32.20;;;;;;;;;;5057425;28;20571;-87
2021/03/02 06:05:45;;;;;;;61.70;36.30;;;;;;;;;;5057358;28;20245;-87
2021/03/02 06:08:10;;;;;;;52.07;29.33;;;;;;;;;;5057296;28;20168;-87
2021/03/02 06:10:36;;;;;;;44.53;23.10;;;;;;;;;;5057266;28;20191;-87
2021/03/02 06:13:02;;;;;;;43.93;25.30;;;;;;;;;;5056979;28;20226;-87
2021/03/02 06:15:28;;;;;;;47.33;28.47;;;;;;;;;;5057077;28;20642;-87
2021/03/02 06:18:12;;;;;;;52.97;31.43;;;;;;;;;;5055888;28;20630;-87
2021/03/02 06:20:39;;;;;;;54.43;30.67;;;;;;;;;;5056788;28;20691;-87
2021/03/02 06:23:23;;;;;;;54.07;28.87;;;;;;;;;;5056984;28;20176;-88
2021/03/02 06:25:48;;;;;;;53.20;29.93;;;;;;;;;;5056974;28;20168;-88
2021/03/02 06:28:14;;;;;;;82.37;44.37;;;;;;;;;;5055696;28;20182;-88
2021/03/02 06:30:39;;;;;;;80.93;42.10;;;;;;;;;;5056838;28;20164;-88
2021/03/02 06:33:05;;;;;;;55.37;30.17;;;;;;;;;;5056526;28;20172;-88
2021/03/02 06:35:31;;;;;;;53.47;29.37;;;;;;;;;;5057152;28;20187;-88
2021/03/02 06:37:57;;;;;;;51.00;28.27;;;;;;;;;;5056467;28;20243;-87
2021/03/02 06:40:38;;;;;;;55.10;29.10;;;;;;;;;;5056701;28;20191;-87
2021/03/02 06:43:04;;;;;;;74.43;38.43;;;;;;;;;;5056735;28;20167;-87
2021/03/02 06:45:30;;;;;;;80.07;43.63;;;;;;;;;;5056610;28;20692;-86
2021/03/02 06:48:05;;;;;;;52.33;27.23;;;;;;;;;;5055434;28;20168;-87
2021/03/02 06:50:36;;;;;;;63.80;33.87;;;;;;;;;;5056698;28;20543;-87
2021/03/02 06:53:07;;;;;;;52.83;30.50;;;;;;;;;;5056133;28;20614;-86
2021/03/02 06:55:32;;;;;;;57.83;29.10;;;;;;;;;;5054954;28;20187;-86
2021/03/02 06:58:17;;;;;;;61.67;36.00;;;;;;;;;;5056103;28;20547;-86
2021/03/02 07:00:53;;;;;;;48.47;25.90;;;;;;;;;;5055947;28;20223;-85
2021/03/02 07:03:22;;;;;;;46.80;24.43;;;;;;;;;;5053692;28;20175;-86
2021/03/02 07:05:48;;;;;;;45.57;25.23;;;;;;;;;;5040502;28;20318;-86
2021/03/02 07:08:13;;;;;;;56.90;33.47;;;;;;;;;;5036337;28;20259;-86
2021/03/02 07:10:39;;;;;;;115.77;66.50;;;;;;;;;;5036185;28;20180;-86
2021/03/02 07:13:05;;;;;;;61.93;36.43;;;;;;;;;;5036392;28;20645;-85
2021/03/02 07:15:30;;;;;;;67.17;35.50;;;;;;;;;;5052571;28;20181;-85
2021/03/02 07:17:56;;;;;;;47.37;25.53;;;;;;;;;;5056354;28;20179;-85
2021/03/02 07:20:23;;;;;;;53.57;29.27;;;;;;;;;;5054698;28;20199;-85
2021/03/02 07:22:50;;;;;;;57.63;33.57;;;;;;;;;;5055799;28;20176;-85
2021/03/02 07:25:19;;;;;;;50.37;25.37;;;;;;;;;;5055781;28;20164;-86
2021/03/02 07:27:47;;;;;;;49.27;25.50;;;;;;;;;;5055508;28;20180;-86
2021/03/02 07:30:13;;;;;;;55.37;35.27;;;;;;;;;;5054591;28;20184;-86
2021/03/02 07:32:39;;;;;;;72.60;41.47;;;;;;;;;;5055306;28;20170;-86
2021/03/02 07:35:05;;;;;;;145.33;83.07;;;;;;;;;;5055333;28;20289;-85
2021/03/02 07:37:31;;;;;;;136.87;70.67;;;;;;;;;;5055178;28;20686;-86
2021/03/02 07:40:04;;;;;;;158.70;75.87;;;;;;;;;;5055246;28;20206;-85
2021/03/02 07:42:32;;;;;;;139.83;67.57;;;;;;;;;;5055139;28;20172;-85
2021/03/02 07:45:16;;;;;;;239.97;104.83;;;;;;;;;;5055086;28;20195;-85
2021/03/02 07:47:44;;;;;;;108.83;56.17;;;;;;;;;;5055498;28;20168;-86
2021/03/02 07:50:18;;;;;;;129.67;64.00;;;;;;;;;;5055306;28;20175;-86
2021/03/02 07:52:44;;;;;;;99.40;52.63;;;;;;;;;;5055544;28;20266;-86
2021/03/02 07:55:20;;;;;;;86.17;43.93;;;;;;;;;;5055184;28;20207;-86
2021/03/02 07:57:45;;;;;;;98.83;44.33;;;;;;;;;;5054975;28;20210;-86
2021/03/02 08:00:13;;;;;;;64.33;34.70;;;;;;;;;;5054157;28;20236;-86
2021/03/02 08:02:42;;;;;;;171.03;69.97;;;;;;;;;;5054754;28;20187;-85
2021/03/02 08:05:33;;;;;;;66.60;34.57;;;;;;;;;;5055004;28;20236;-85
2021/03/02 08:08:17;;;;;;;47.50;27.57;;;;;;;;;;5040064;28;20299;-86
2021/03/02 08:10:42;;;;;;;45.43;27.20;;;;;;;;;;5035049;28;20164;-86
2021/03/02 08:13:26;;;;;;;87.13;45.17;;;;;;;;;;5036949;28;20539;-86
2021/03/02 08:15:51;;;;;;;83.10;45.97;;;;;;;;;;5034425;28;20609;-86
2021/03/02 08:18:54;;;;;;;56.43;32.50;;;;;;;;;;5034829;28;20168;-85
2021/03/02 08:21:20;;;;;;;74.00;41.20;;;;;;;;;;5052363;28;20265;-85
2021/03/02 08:23:49;;;;;;;98.23;51.37;;;;;;;;;;5053503;28;21304;-84
2021/03/02 08:26:21;;;;;;;60.23;36.53;;;;;;;;;;5053933;28;20579;-85
2021/03/02 08:29:03;;;;;;;96.50;52.43;;;;;;;;;;5054048;28;20516;-86
2021/03/02 08:31:28;;;;;;;73.27;41.27;;;;;;;;;;5054257;28;20178;-85
2021/03/02 08:33:55;;;;;;;111.97;65.80;;;;;;;;;;5054127;28;20270;-85
2021/03/02 08:36:20;;;;;;;77.43;45.17;;;;;;;;;;5054624;28;20241;-85
2021/03/02 08:38:45;;;;;;;66.83;37.30;;;;;;;;;;5054144;28;20557;-85
2021/03/02 08:41:11;;;;;;;62.80;36.30;;;;;;;;;;5051318;28;20195;-85
2021/03/02 08:43:36;;;;;;;49.37;28.13;;;;;;;;;;5047991;28;20168;-85
2021/03/02 08:46:01;;;;;;;69.17;39.43;;;;;;;;;;5051413;28;20176;-86
2021/03/02 08:48:27;;;;;;;49.30;28.23;;;;;;;;;;5054821;28;20615;-86
2021/03/02 08:51:00;;;;;;;51.87;28.03;;;;;;;;;;5054228;28;20619;-85
2021/03/02 08:53:25;;;;;;;51.33;28.90;;;;;;;;;;5054179;28;20178;-85
2021/03/02 08:55:51;;;;;;;66.23;39.73;;;;;;;;;;5053781;28;20293;-85
2021/03/02 08:58:24;;;;;;;77.67;48.73;;;;;;;;;;5053820;28;20168;-85
2021/03/02 09:00:59;;;;;;;79.83;48.17;;;;;;;;;;5052648;28;20224;-85
2021/03/02 09:03:25;;;;;;;69.77;41.10;;;;;;;;;;5052231;28;20250;-85
2021/03/02 09:06:05;;;;;;;77.67;46.10;;;;;;;;;;5052387;28;20207;-85
2021/03/02 09:08:30;;;;;;;61.27;34.87;;;;;;;;;;5054233;28;20631;-85
2021/03/02 09:11:02;;;;;;;82.53;53.47;;;;;;;;;;5053202;28;20172;-86
2021/03/02 09:13:39;;;;;;;59.07;35.50;;;;;;;;;;5053889;28;20172;-85
2021/03/02 09:16:27;;;;;;;88.33;53.60;;;;;;;;;;5053686;28;20207;-85
2021/03/02 09:19:01;;;;;;;60.97;37.23;;;;;;;;;;5050323;28;20270;-85
2021/03/02 09:21:27;;;;;;;44.10;26.60;;;;;;;;;;5052437;28;20664;-86
2021/03/02 09:23:55;;;;;;;45.97;27.10;;;;;;;;;;5053528;28;20201;-86
2021/03/02 09:26:23;;;;;;;48.57;27.50;;;;;;;;;;5053375;28;20178;-86
2021/03/02 09:28:54;;;;;;;47.40;27.43;;;;;;;;;;5053498;28;20688;-86
2021/03/02 09:31:19;;;;;;;47.90;26.17;;;;;;;;;;5053700;28;20230;-86
2021/03/02 09:33:47;;;;;;;55.53;32.63;;;;;;;;;;5053490;28;20671;-86
2021/03/02 09:36:13;;;;;;;51.50;30.73;;;;;;;;;;5051955;28;20219;-86
2021/03/02 09:38:38;;;;;;;62.93;39.13;;;;;;;;;;5053958;28;20222;-87
2021/03/02 09:41:03;;;;;;;43.80;25.63;;;;;;;;;;5053252;28;20175;-87
2021/03/02 09:43:36;;;;;;;71.23;39.67;;;;;;;;;;5052528;28;20172;-87
2021/03/02 09:46:01;;;;;;;58.63;35.13;;;;;;;;;;5053153;28;20178;-87
2021/03/02 09:48:26;;;;;;;46.83;28.80;;;;;;;;;;5053543;28;20176;-87
2021/03/02 09:50:52;;;;;;;66.83;41.27;;;;;;;;;;5053173;28;20168;-87
2021/03/02 09:53:17;;;;;;;53.57;34.00;;;;;;;;;;5053180;28;20649;-85
2021/03/02 09:55:45;;;;;;;43.07;25.80;;;;;;;;;;5053254;28;20653;-86
2021/03/02 09:58:17;;;;;;;48.77;29.13;;;;;;;;;;5053065;28;20171;-86
2021/03/02 10:01:09;;;;;;;49.43;27.13;;;;;;;;;;5052976;28;20232;-86
2021/03/02 10:03:35;;;;;;;46.80;25.80;;;;;;;;;;5052968;28;20184;-86
2021/03/02 10:06:03;;;;;;;52.43;31.13;;;;;;;;;;5052765;28;20187;-86
2021/03/02 10:08:29;;;;;;;42.73;25.93;;;;;;;;;;5052886;28;20175;-86
2021/03/02 10:11:12;;;;;;;46.93;27.80;;;;;;;;;;5053016;28;20518;-87
2021/03/02 10:13:39;;;;;;;47.53;25.60;;;;;;;;;;5051555;28;20210;-87
2021/03/02 10:16:17;;;;;;;44.57;26.47;;;;;;;;;;5052810;28;20561;-86
2021/03/02 10:18:49;;;;;;;46.03;28.83;;;;;;;;;;5053160;28;20176;-86
2021/03/02 10:21:14;;;;;;;40.30;24.00;;;;;;;;;;5053429;28;20179;-86
2021/03/02 10:23:44;;;;;;;48.07;29.20;;;;;;;;;;5053996;28;20514;-86
2021/03/02 10:26:11;;;;;;;48.00;29.57;;;;;;;;;;5056848;28;20202;-86
2021/03/02 10:28:36;;;;;;;53.90;30.37;;;;;;;;;;5056719;28;20168;-86
2021/03/02 10:31:02;;;;;;;49.90;30.77;;;;;;;;;;5056924;28;20259;-85
2021/03/02 10:33:28;;;;;;;47.33;27.63;;;;;;;;;;5056042;28;20271;-85
2021/03/02 10:35:53;;;;;;;40.47;23.90;;;;;;;;;;5056546;28;20172;-85
2021/03/02 10:38:19;;;;;;;46.60;26.33;;;;;;;;;;5056597;28;20175;-85
2021/03/02 10:40:44;;;;;;;51.80;29.07;;;;;;;;;;5056560;28;20170;-86
2021/03/02 10:43:10;;;;;;;56.27;37.23;;;;;;;;;;5055768;28;20207;-85
2021/03/02 10:45:35;;;;;;;56.47;34.13;;;;;;;;;;5056207;28;20160;-85
2021/03/02 10:48:01;;;;;;;51.57;30.93;;;;;;;;;;5056125;28;20672;-85
2021/03/02 10:50:27;;;;;;;49.50;31.63;;;;;;;;;;5056117;28;20195;-85
2021/03/02 10:52:52;;;;;;;43.63;26.60;;;;;;;;;;5054758;28;20317;-86
2021/03/02 10:55:18;;;;;;;61.00;38.83;;;;;;;;;;5051889;28;20176;-85
2021/03/02 10:57:43;;;;;;;41.77;25.07;;;;;;;;;;5056289;28;20203;-85
2021/03/02 11:00:09;;;;;;;41.33;25.23;;;;;;;;;;5054622;28;20242;-85
2021/03/02 11:02:34;;;;;;;40.40;24.70;;;;;;;;;;5053590;28;20183;-85
2021/03/02 11:05:00;;;;;;;44.07;25.07;;;;;;;;;;5052929;28;20233;-85
2021/03/02 11:07:25;;;;;;;44.10;25.47;;;;;;;;;;5056001;28;20203;-86
2021/03/02 11:09:50;;;;;;;41.40;24.03;;;;;;;;;;5052251;28;20249;-86
2021/03/02 11:12:16;;;;;;;35.57;21.77;;;;;;;;;;5052948;28;20172;-85
2021/03/02 11:14:41;;;;;;;47.77;26.60;;;;;;;;;;5055752;28;20222;-85
2021/03/02 11:17:06;;;;;;;37.20;22.33;;;;;;;;;;5055596;28;20199;-85
2021/03/02 11:19:32;;;;;;;43.30;23.87;;;;;;;;;;5053744;28;20179;-85
2021/03/02 11:21:57;;;;;;;83.07;41.07;;;;;;;;;;5056107;28;20503;-85
2021/03/02 11:24:23;;;;;;;43.80;25.83;;;;;;;;;;5054711;28;20167;-85
2021/03/02 11:26:49;;;;;;;49.27;28.40;;;;;;;;;;5055516;28;20176;-85
2021/03/02 11:29:14;;;;;;;36.03;21.73;;;;;;;;;;5054917;28;20266;-85
2021/03/02 11:31:40;;;;;;;42.33;24.33;;;;;;;;;;5055472;28;20178;-85
2021/03/02 11:34:05;;;;;;;80.97;47.13;;;;;;;;;;5054495;28;20610;-85
2021/03/02 11:36:30;;;;;;;39.47;22.90;;;;;;;;;;5055325;28;20195;-85
2021/03/02 11:38:56;;;;;;;42.73;27.20;;;;;;;;;;5053389;28;20206;-85
2021/03/02 11:41:21;;;;;;;37.37;21.90;;;;;;;;;;5055821;28;20239;-85
2021/03/02 11:43:46;;;;;;;36.13;22.13;;;;;;;;;;5055469;28;20526;-86
2021/03/02 11:46:12;;;;;;;40.97;26.40;;;;;;;;;;5055837;28;20259;-85
2021/03/02 11:48:37;;;;;;;38.00;22.47;;;;;;;;;;5055258;28;20175;-85
2021/03/02 11:51:02;;;;;;;38.30;22.47;;;;;;;;;;5055552;28;20272;-85
2021/03/02 11:53:28;;;;;;;39.93;23.97;;;;;;;;;;5054034;28;20184;-85
2021/03/02 11:56:02;;;;;;;37.03;21.93;;;;;;;;;;5053066;28;20278;-85
2021/03/02 11:58:29;;;;;;;33.67;22.20;;;;;;;;;;5053671;28;20210;-86
2021/03/02 12:00:54;;;;;;;39.77;23.40;;;;;;;;;;5054632;28;20235;-85
2021/03/02 12:03:20;;;;;;;39.20;24.33;;;;;;;;;;5055533;28;20164;-82
2021/03/02 12:05:45;;;;;;;36.80;23.10;;;;;;;;;;5055022;28;20690;-82
2021/03/02 12:08:11;;;;;;;47.63;27.73;;;;;;;;;;5054301;28;20183;-82
2021/03/02 12:10:36;;;;;;;40.47;25.20;;;;;;;;;;5054500;28;20233;-84
2021/03/02 12:13:01;;;;;;;54.17;28.37;;;;;;;;;;5055044;28;20207;-83
2021/03/02 12:15:27;;;;;;;41.43;25.70;;;;;;;;;;5054408;28;20184;-83
2021/03/02 12:17:52;;;;;;;36.80;22.90;;;;;;;;;;5054411;28;20191;-83
2021/03/02 12:20:17;;;;;;;48.67;28.70;;;;;;;;;;5054764;28;20168;-82
2021/03/02 12:22:43;;;;;;;38.63;24.10;;;;;;;;;;5055001;28;20175;-83
2021/03/02 12:25:08;;;;;;;35.10;23.20;;;;;;;;;;5054414;28;20637;-83
2021/03/02 12:27:34;;;;;;;38.37;23.47;;;;;;;;;;5055060;28;20183;-82
2021/03/02 12:29:59;;;;;;;84.93;43.80;;;;;;;;;;5054464;28;20249;-83
2021/03/02 12:32:25;;;;;;;52.93;28.43;;;;;;;;;;5054817;28;20171;-82
2021/03/02 12:34:50;;;;;;;44.03;25.63;;;;;;;;;;5054419;28;20196;-82
2021/03/02 12:37:15;;;;;;;45.97;26.40;;;;;;;;;;5054560;28;20196;-82
2021/03/02 12:39:41;;;;;;;37.53;23.47;;;;;;;;;;5049354;28;20271;-82
2021/03/02 12:42:06;;;;;;;42.47;24.83;;;;;;;;;;5033996;28;20168;-81
2021/03/02 12:44:32;;;;;;;37.67;23.43;;;;;;;;;;5034133;28;20195;-82
2021/03/02 12:46:57;;;;;;;42.53;25.47;;;;;;;;;;5034333;28;20552;-83
2021/03/02 12:49:22;;;;;;;41.27;23.63;;;;;;;;;;5032986;28;20169;-83
2021/03/02 12:51:48;;;;;;;38.17;24.00;;;;;;;;;;5033809;28;20180;-82
2021/03/02 12:54:13;;;;;;;33.63;22.80;;;;;;;;;;5045210;28;20191;-82
2021/03/02 12:56:38;;;;;;;34.43;22.90;;;;;;;;;;5054063;28;20199;-82
2021/03/02 12:59:04;;;;;;;33.57;22.07;;;;;;;;;;5053760;28;20217;-82
2021/03/02 13:01:30;;;;;;;38.83;24.17;;;;;;;;;;5054162;28;20228;-83
2021/03/02 13:03:58;;;;;;;44.60;26.33;;;;;;;;;;5053977;28;20645;-82
2021/03/02 13:06:24;;;;;;;36.67;22.93;;;;;;;;;;5053399;28;20544;-82
2021/03/02 13:08:49;;;;;;;35.13;21.43;;;;;;;;;;5053665;28;20176;-82
2021/03/02 13:11:14;;;;;;;31.97;21.60;;;;;;;;;;5053497;28;20178;-82
2021/03/02 13:13:54;;;;;;;38.07;22.77;;;;;;;;;;5053844;28;20501;-83
2021/03/02 13:16:20;;;;;;;34.97;21.87;;;;;;;;;;5053603;28;20604;-82
2021/03/02 13:18:49;;;;;;;34.40;21.73;;;;;;;;;;5053564;28;20178;-83
2021/03/02 13:21:15;;;;;;;34.57;21.90;;;;;;;;;;5038065;28;20554;-83
2021/03/02 13:23:44;;;;;;;34.73;21.87;;;;;;;;;;5035705;28;20173;-82
2021/03/02 13:26:11;;;;;;;31.63;21.60;;;;;;;;;;5041946;28;20196;-82
2021/03/02 13:28:38;;;;;;;42.33;25.70;;;;;;;;;;5033727;28;20263;-82
2021/03/02 13:31:07;;;;;;;129.37;61.27;;;;;;;;;;5033691;28;20615;-82
2021/03/02 13:33:33;;;;;;;43.33;26.23;;;;;;;;;;5033794;28;20169;-82
2021/03/02 13:35:59;;;;;;;37.13;23.13;;;;;;;;;;5033586;28;20169;-82
2021/03/02 13:38:24;;;;;;;32.10;22.27;;;;;;;;;;5033341;28;20176;-83
2021/03/02 13:40:53;;;;;;;38.60;24.43;;;;;;;;;;5033778;28;20172;-82
2021/03/02 13:43:20;;;;;;;39.40;23.63;;;;;;;;;;5032206;28;20208;-82
2021/03/02 13:45:50;;;;;;;32.97;21.63;;;;;;;;;;5046396;28;20630;-83
2021/03/02 13:48:15;;;;;;;32.00;21.53;;;;;;;;;;5052142;28;20179;-82
2021/03/02 13:50:40;;;;;;;34.10;21.73;;;;;;;;;;5052961;28;20258;-82
2021/03/02 13:53:06;;;;;;;28.80;20.27;;;;;;;;;;5052847;28;20172;-83
2021/03/02 13:55:31;;;;;;;29.93;20.77;;;;;;;;;;5052342;28;20619;-82
2021/03/02 13:57:57;;;;;;;27.93;19.87;;;;;;;;;;5055421;28;20207;-82
2021/03/02 14:00:22;;;;;;;35.13;22.30;;;;;;;;;;5057797;28;20230;-82
2021/03/02 14:02:48;;;;;;;33.10;20.40;;;;;;;;;;5057718;28;20189;-82
2021/03/02 14:05:16;;;;;;;31.37;20.57;;;;;;;;;;5057589;28;20179;-82
2021/03/02 14:07:42;;;;;;;36.60;22.97;;;;;;;;;;5051049;28;20622;-84
2021/03/02 14:10:09;;;;;;;37.20;23.90;;;;;;;;;;5043824;28;20177;-83
2021/03/02 14:12:35;;;;;;;36.40;23.43;;;;;;;;;;5043948;28;20817;-83
2021/03/02 14:15:00;;;;;;;36.67;23.50;;;;;;;;;;5044571;28;20187;-86
2021/03/02 14:17:28;;;;;;;37.70;24.43;;;;;;;;;;5044019;28;20558;-85